Time;durP1;ratioP1;P1;durP2;ratioP2;P2;SDS_P1;SDS_P2;PMS_P1;PMS_P2;Temp;Humidity;BMP_temperature;BMP_pressure;BME280_temperature;BME280_humidity;BME280_pressure;Samples;Min_cycle;Max_cycle;Signal;HPM_P1;HPM_P2
2023/06/14 08:57:15;;;;;;;9.68;2.65;;;;;;;22.40;38.37;101425.97;5089640;27;20733;-70
2023/06/14 08:59:53;;;;;;;9.43;2.65;;;;;;;22.50;38.15;101427.81;5080396;28;20039;-71
2023/06/14 09:02:19;;;;;;;2.80;2.40;;;;;;;22.52;36.29;101424.78;5044774;28;20461;-70
2023/06/14 09:04:45;;;;;;;11.18;2.50;;;;;;;22.56;36.26;101432.16;5025429;28;20034;-70
2023/06/14 09:07:12;;;;;;;5.90;2.33;;;;;;;22.60;36.12;101437.91;5026184;28;20748;-72
2023/06/14 09:09:44;;;;;;;6.50;2.42;;;;;;;22.59;35.79;101433.53;5026848;28;20072;-71
2023/06/14 09:12:11;;;;;;;7.97;2.30;;;;;;;22.60;34.65;101447.03;5033069;28;20029;-70
2023/06/14 09:14:39;;;;;;;9.07;2.35;;;;;;;22.74;35.19;101430.59;5047202;28;20508;-71
2023/06/14 09:17:05;;;;;;;8.23;1.95;;;;;;;22.80;35.34;101429.41;5048054;28;20384;-70
2023/06/14 09:19:30;;;;;;;7.65;2.30;;;;;;;22.85;35.45;101431.31;5049620;28;20032;-71
2023/06/14 09:21:56;;;;;;;6.25;2.80;;;;;;;22.92;34.59;101425.44;5035480;28;20086;-71
2023/06/14 09:24:25;;;;;;;4.53;2.28;;;;;;;23.02;34.29;101422.53;5049409;28;20039;-70
2023/06/14 09:26:51;;;;;;;12.73;3.28;;;;;;;23.19;34.21;101430.38;5047862;28;20068;-71
2023/06/14 09:29:17;;;;;;;4.15;2.15;;;;;;;23.22;34.58;101429.78;5049323;28;20076;-70
2023/06/14 09:31:43;;;;;;;5.10;2.35;;;;;;;23.29;34.38;101430.22;5032265;28;20363;-70
2023/06/14 09:34:09;;;;;;;3.97;2.05;;;;;;;23.32;34.05;101428.81;5048869;28;20095;-69
2023/06/14 09:36:35;;;;;;;3.38;1.90;;;;;;;23.32;32.71;101439.84;5048893;28;20114;-72
2023/06/14 09:39:07;;;;;;;2.63;1.40;;;;;;;23.44;32.67;101437.47;5044642;28;20145;-72
2023/06/14 09:41:34;;;;;;;3.50;1.70;;;;;;;23.50;31.41;101447.31;5025940;28;20034;-71
2023/06/14 09:44:00;;;;;;;3.45;1.73;;;;;;;23.52;31.17;101445.09;5029001;28;20165;-71
2023/06/14 09:46:26;;;;;;;2.38;1.60;;;;;;;23.55;32.42;101438.13;5029008;28;20548;-68
2023/06/14 09:48:52;;;;;;;4.20;1.60;;;;;;;23.72;32.99;101440.38;5033536;28;20079;-70
2023/06/14 09:51:18;;;;;;;5.88;1.60;;;;;;;23.76;31.43;101459.94;5048728;28;20064;-71
2023/06/14 09:53:44;;;;;;;1.98;1.48;;;;;;;23.70;30.62;101448.13;5032680;28;20088;-69
2023/06/14 09:56:10;;;;;;;4.68;1.50;;;;;;;23.66;30.91;101453.44;5028544;28;20147;-71
2023/06/14 09:58:39;;;;;;;2.60;1.50;;;;;;;23.68;30.27;101442.09;5025761;28;20132;-71
2023/06/14 10:01:08;;;;;;;3.25;1.50;;;;;;;23.69;31.00;101443.75;5023020;28;20057;-69
2023/06/14 10:03:35;;;;;;;2.38;1.35;;;;;;;23.77;30.83;101433.97;5038628;28;20033;-69
2023/06/14 10:06:07;;;;;;;5.82;1.60;;;;;;;23.74;30.99;101437.31;5016014;28;20044;-71
2023/06/14 10:08:35;;;;;;;3.60;1.55;;;;;;;23.84;30.71;101437.97;5002494;28;20037;-70
2023/06/14 10:11:00;;;;;;;6.47;1.77;;;;;;;23.83;29.69;101432.75;5033835;28;20034;-70
2023/06/14 10:13:32;;;;;;;5.15;1.80;;;;;;;23.85;29.90;101436.91;5031484;28;20036;-69
2023/06/14 10:16:10;;;;;;;3.22;1.80;;;;;;;23.88;31.62;101436.28;5001887;28;20029;-70
2023/06/14 10:18:44;;;;;;;2.88;1.20;;;;;;;23.95;32.57;101435.09;5015400;28;20030;-69
2023/06/14 10:21:22;;;;;;;4.93;1.63;;;;;;;23.94;30.16;101434.25;5025183;28;20296;-71
2023/06/14 10:23:49;;;;;;;4.45;1.52;;;;;;;24.05;30.38;101432.13;5015144;28;20018;-70
2023/06/14 10:26:22;;;;;;;1.60;1.50;;;;;;;24.12;30.53;101438.09;5013724;28;20042;-69
2023/06/14 10:29:08;;;;;;;4.65;1.70;;;;;;;24.11;30.26;101439.25;5014194;28;20022;-68
2023/06/14 10:31:45;;;;;;;2.50;1.50;;;;;;;24.10;30.23;101432.06;5023153;28;20037;-70
2023/06/14 10:34:12;;;;;;;3.70;1.63;;;;;;;24.21;30.24;101435.47;5029338;28;20037;-71
2023/06/14 10:36:40;;;;;;;5.80;1.92;;;;;;;24.29;29.86;101439.47;5010200;28;20505;-69
2023/06/14 10:39:08;;;;;;;3.03;1.67;;;;;;;24.24;30.90;101438.44;4995265;28;20505;-69
2023/06/14 10:41:39;;;;;;;1.85;1.63;;;;;;;24.37;30.26;101447.09;4995413;28;20037;-69
2023/06/14 10:44:13;;;;;;;3.92;1.60;;;;;;;24.45;30.09;101438.06;4995231;28;20037;-70
2023/06/14 10:46:40;;;;;;;8.63;2.40;;;;;;;24.48;29.50;101437.47;5018553;28;20367;-68
2023/06/14 10:49:06;;;;;;;5.93;1.50;;;;;;;24.50;29.15;101445.47;5014621;28;20029;-71
2023/06/14 10:51:48;;;;;;;5.75;1.50;;;;;;;24.51;29.71;101439.63;5009177;28;20113;-72
2023/06/14 10:54:14;;;;;;;4.10;1.70;;;;;;;24.56;29.67;101430.41;5005463;28;20100;-70
2023/06/14 10:56:48;;;;;;;4.55;1.77;;;;;;;24.66;29.68;101440.50;5014242;28;20057;-73
2023/06/14 10:59:14;;;;;;;1.85;1.75;;;;;;;24.77;29.59;101441.94;5018659;28;20037;-70
2023/06/14 11:02:17;;;;;;;3.20;1.50;;;;;;;24.78;29.95;101449.09;5009781;28;20049;-72
2023/06/14 11:04:52;;;;;;;9.15;1.75;;;;;;;24.75;30.24;101447.75;5014653;28;20030;-71
2023/06/14 11:07:40;;;;;;;3.30;1.60;;;;;;;24.87;30.32;101438.16;5012978;28;20030;-72
2023/06/14 11:10:18;;;;;;;2.58;1.73;;;;;;;25.11;31.00;101433.19;4993150;28;20038;-70
2023/06/14 11:12:48;;;;;;;1.40;1.30;;;;;;;25.25;30.86;101433.16;4994859;28;20038;-72
2023/06/14 11:15:13;;;;;;;4.80;1.63;;;;;;;25.26;28.71;101423.75;4994558;28;20030;-71
2023/06/14 11:17:42;;;;;;;3.35;1.60;;;;;;;25.33;28.74;101428.88;4994928;28;20030;-77
2023/06/14 11:20:16;;;;;;;5.28;1.60;;;;;;;25.35;29.33;101423.84;5031511;28;20026;-74
2023/06/14 11:22:45;;;;;;;3.67;1.60;;;;;;;25.36;29.26;101422.72;5033914;28;20032;-72
2023/06/14 11:25:14;;;;;;;1.98;1.60;;;;;;;25.39;29.57;101421.28;5033451;28;20025;-73
2023/06/14 11:27:42;;;;;;;9.32;2.00;;;;;;;25.41;29.56;101424.53;5014781;28;20065;-71
2023/06/14 11:30:09;;;;;;;17.13;2.45;;;;;;;25.52;29.44;101419.59;4994318;28;20030;-73
2023/06/14 11:32:35;;;;;;;6.95;1.67;;;;;;;25.57;28.88;101423.06;5006718;28;20029;-74
2023/06/14 11:35:02;;;;;;;6.75;1.98;;;;;;;25.57;28.70;101420.28;5031867;28;20037;-76
2023/06/14 11:37:28;;;;;;;4.03;1.70;;;;;;;25.55;29.11;101424.53;5014568;28;20485;-70
2023/06/14 11:39:59;;;;;;;6.93;1.70;;;;;;;25.49;29.25;101414.69;5013855;28;20087;-70
2023/06/14 11:42:27;;;;;;;6.97;1.90;;;;;;;25.63;29.93;101415.44;5012196;28;20492;-70
2023/06/14 11:44:53;;;;;;;3.95;1.83;;;;;;;25.69;29.58;101421.69;5013805;28;20034;-69
2023/06/14 11:47:19;;;;;;;8.00;2.05;;;;;;;25.63;30.01;101423.75;5004873;28;20042;-71
2023/06/14 11:49:44;;;;;;;7.05;1.90;;;;;;;25.69;29.40;101413.38;4997206;28;20105;-72
2023/06/14 11:52:11;;;;;;;4.78;1.70;;;;;;;25.76;28.74;101419.31;5005881;28;20121;-75
2023/06/14 11:54:37;;;;;;;5.70;1.77;;;;;;;25.83;29.12;101423.28;4994091;28;20102;-73
2023/06/14 11:57:03;;;;;;;4.38;1.60;;;;;;;25.77;28.58;101421.75;4993771;28;20073;-70
2023/06/14 11:59:31;;;;;;;8.85;1.77;;;;;;;25.95;29.67;101411.63;4997272;28;20026;-74
2023/06/14 12:01:56;;;;;;;7.20;1.80;;;;;;;26.01;29.49;101409.53;5010377;28;20260;-74
2023/06/14 12:04:26;;;;;;;5.55;1.50;;;;;;;26.05;29.46;101409.75;5014787;28;20461;-69
2023/06/14 12:06:53;;;;;;;1.75;1.50;;;;;;;25.97;28.67;101405.75;5033193;28;20473;-72
2023/06/14 12:09:19;;;;;;;3.75;1.55;;;;;;;26.12;28.77;101412.91;5032593;28;20420;-72
2023/06/14 12:11:45;;;;;;;4.60;1.60;;;;;;;26.00;28.60;101419.03;5032834;28;20036;-72
2023/06/14 12:14:11;;;;;;;4.05;1.55;;;;;;;26.14;29.29;101416.97;5020044;28;20037;-74
2023/06/14 12:16:41;;;;;;;4.53;1.70;;;;;;;26.17;29.15;101418.31;5032636;28;20025;-70
2023/06/14 12:19:13;;;;;;;4.65;1.60;;;;;;;26.21;29.19;101419.31;5032840;28;20037;-70
2023/06/14 12:21:40;;;;;;;4.55;1.67;;;;;;;26.16;28.11;101411.94;5032939;28;20116;-72
2023/06/14 12:24:06;;;;;;;5.10;2.25;;;;;;;26.21;27.64;101412.94;5014080;28;20100;-72
2023/06/14 12:26:33;;;;;;;3.03;1.40;;;;;;;26.34;27.76;101412.88;5011229;28;20044;-73
2023/06/14 12:28:58;;;;;;;4.05;1.45;;;;;;;26.52;27.80;101415.69;5031546;28;20030;-66
2023/06/14 12:31:24;;;;;;;5.50;1.50;;;;;;;26.61;28.17;101405.44;5022085;28;20038;-68
2023/06/14 12:33:49;;;;;;;4.88;1.70;;;;;;;26.68;27.37;101419.72;4993419;28;20026;-72
2023/06/14 12:36:16;;;;;;;3.00;1.60;;;;;;;26.70;28.12;101413.84;4999145;28;20033;-69
2023/06/14 12:38:41;;;;;;;2.60;1.45;;;;;;;26.72;27.79;101421.84;4997154;28;20474;-69
2023/06/14 12:41:07;;;;;;;4.03;1.63;;;;;;;26.83;28.17;101418.47;5000387;28;20088;-71
2023/06/14 12:43:33;;;;;;;3.67;1.67;;;;;;;26.75;27.88;101412.88;5013341;28;20025;-71
2023/06/14 12:45:59;;;;;;;4.53;1.80;;;;;;;26.84;27.55;101428.44;5030231;28;20116;-72
2023/06/14 12:48:26;;;;;;;5.93;1.55;;;;;;;26.97;27.37;101423.06;5032438;28;20040;-69
2023/06/14 12:50:52;;;;;;;5.47;1.55;;;;;;;26.98;27.23;101422.75;5032509;28;20034;-70
2023/06/14 12:53:17;;;;;;;3.10;1.70;;;;;;;26.82;26.83;101421.56;5004584;28;20493;-71
2023/06/14 12:55:42;;;;;;;3.10;1.70;;;;;;;26.87;26.99;101426.97;4992978;28;20061;-70
2023/06/14 12:58:08;;;;;;;3.37;1.77;;;;;;;26.86;27.20;101417.00;5016644;28;20087;-71
2023/06/14 13:00:35;;;;;;;4.80;1.50;;;;;;;27.05;27.28;101431.44;5045476;28;20272;-70
2023/06/14 13:03:00;;;;;;;4.00;1.50;;;;;;;27.09;26.93;101417.72;5011827;28;20297;-69
2023/06/14 13:05:26;;;;;;;5.65;1.63;;;;;;;27.20;26.96;101421.00;5012297;28;20040;-70
2023/06/14 13:07:51;;;;;;;5.53;1.40;;;;;;;27.32;27.55;101429.53;5005367;28;20105;-70
2023/06/14 13:10:17;;;;;;;2.38;1.30;;;;;;;27.43;27.05;101429.22;4992528;28;20780;-73
2023/06/14 13:12:42;;;;;;;4.85;1.50;;;;;;;27.54;26.90;101419.44;5005558;28;20022;-72
2023/06/14 13:15:08;;;;;;;1.85;1.30;;;;;;;27.64;27.39;101424.63;5029844;28;20025;-71
2023/06/14 13:17:38;;;;;;;4.32;1.50;;;;;;;27.54;26.80;101419.44;5029612;28;20025;-73
2023/06/14 13:20:07;;;;;;;3.30;1.30;;;;;;;27.71;27.34;101421.38;5032260;28;20029;-70
2023/06/14 13:22:32;;;;;;;3.83;1.10;;;;;;;27.50;26.03;101424.00;5031017;28;20083;-69
2023/06/14 13:24:58;;;;;;;4.13;1.35;;;;;;;27.75;26.07;101431.50;5032215;28;20037;-69
2023/06/14 13:27:24;;;;;;;1.80;1.40;;;;;;;27.84;27.32;101433.44;5025109;28;20121;-71
2023/06/14 13:29:49;;;;;;;6.93;1.60;;;;;;;27.88;27.50;101429.69;5030893;28;20472;-69
2023/06/14 13:32:15;;;;;;;12.73;1.92;;;;;;;27.93;26.60;101429.53;5031998;28;20103;-73
2023/06/14 13:34:40;;;;;;;7.68;1.45;;;;;;;27.92;26.20;101418.72;5031906;28;20025;-69
2023/06/14 13:37:05;;;;;;;3.90;1.50;;;;;;;27.85;26.41;101418.41;5031596;28;20033;-71
2023/06/14 13:39:31;;;;;;;2.72;1.55;;;;;;;27.94;26.21;101427.56;5031907;28;20036;-71
2023/06/14 13:41:56;;;;;;;4.05;1.30;;;;;;;27.97;26.47;101421.38;5027555;28;20388;-68
2023/06/14 13:44:21;;;;;;;2.23;1.40;;;;;;;28.04;26.62;101412.53;5014300;28;20385;-70
2023/06/14 13:46:47;;;;;;;2.35;1.27;;;;;;;28.22;27.29;101418.88;5030419;28;20344;-69
2023/06/14 13:49:12;;;;;;;3.42;1.70;;;;;;;28.24;25.98;101422.13;5019992;28;20022;-69
2023/06/14 13:51:38;;;;;;;5.57;1.60;;;;;;;28.30;26.33;101420.81;5035739;28;20469;-69
2023/06/14 13:54:03;;;;;;;4.15;1.40;;;;;;;28.27;26.88;101418.69;5029834;28;20461;-72
2023/06/14 13:56:29;;;;;;;1.80;1.20;;;;;;;28.38;25.92;101414.38;5014357;28;20469;-72
2023/06/14 13:58:55;;;;;;;7.78;1.33;;;;;;;28.31;26.40;101416.88;4996339;28;20037;-70
2023/06/14 14:01:20;;;;;;;3.10;1.50;;;;;;;28.53;26.33;101420.56;4998152;28;20046;-70
2023/06/14 14:03:47;;;;;;;4.63;1.58;;;;;;;28.35;25.79;101417.00;5015489;28;20029;-69
2023/06/14 14:06:13;;;;;;;1.35;1.20;;;;;;;28.27;25.67;101425.06;5015755;28;20034;-68
2023/06/14 14:08:39;;;;;;;6.55;1.67;;;;;;;28.19;25.21;101413.97;5022167;28;20107;-69
2023/06/14 14:11:05;;;;;;;2.55;1.35;;;;;;;27.95;25.25;101412.50;5024013;28;20038;-71
2023/06/14 14:13:31;;;;;;;4.88;1.42;;;;;;;27.95;25.71;101412.50;5014430;28;20466;-69
2023/06/14 14:15:56;;;;;;;10.82;1.77;;;;;;;28.08;26.10;101424.59;5001301;28;20041;-71
2023/06/14 14:18:25;;;;;;;4.03;1.27;;;;;;;28.16;26.21;101422.94;5011322;28;20033;-71
2023/06/14 14:20:50;;;;;;;6.22;1.50;;;;;;;28.29;26.34;101417.22;5012096;28;20080;-69
2023/06/14 14:23:16;;;;;;;5.03;1.20;;;;;;;28.34;26.16;101419.00;5005017;28;20038;-71
2023/06/14 14:25:41;;;;;;;2.10;1.02;;;;;;;28.54;26.92;101405.50;5011437;28;20472;-72
2023/06/14 14:28:07;;;;;;;3.50;1.52;;;;;;;28.70;25.45;101408.53;5031720;28;20037;-72
2023/06/14 14:30:32;;;;;;;6.63;1.23;;;;;;;28.64;25.49;101413.50;5002278;28;20490;-74
2023/06/14 14:33:06;;;;;;;1.83;1.08;;;;;;;28.64;24.93;101419.06;5013214;28;20440;-76
2023/06/14 14:35:38;;;;;;;3.45;0.98;;;;;;;28.74;25.69;101409.50;5014891;28;20040;-73
2023/06/14 14:38:04;;;;;;;2.25;1.20;;;;;;;28.72;25.49;101412.63;5012460;28;20056;-70
2023/06/14 14:40:30;;;;;;;2.05;1.30;;;;;;;28.69;25.29;101420.84;5008114;28;20026;-73
2023/06/14 14:42:55;;;;;;;5.88;1.10;;;;;;;28.59;24.89;101420.06;5033418;28;20436;-71
2023/06/14 14:45:20;;;;;;;2.13;1.10;;;;;;;28.61;25.53;101412.19;5033500;28;20029;-70
2023/06/14 14:47:46;;;;;;;7.15;1.33;;;;;;;28.72;24.96;101406.25;5034998;28;20033;-74
2023/06/14 14:50:11;;;;;;;5.43;1.40;;;;;;;28.68;24.70;101416.44;5028145;28;20029;-72
2023/06/14 14:52:36;;;;;;;3.65;1.27;;;;;;;28.74;24.81;101412.28;5014673;28;20558;-72
2023/06/14 14:55:02;;;;;;;4.22;1.05;;;;;;;28.75;23.99;101420.31;5023653;28;20109;-70
2023/06/14 14:57:31;;;;;;;3.85;1.15;;;;;;;28.71;24.34;101422.13;5034366;28;20645;-71
2023/06/14 14:59:56;;;;;;;1.95;1.35;;;;;;;28.84;24.04;101408.28;5034479;28;20056;-74
2023/06/14 15:02:23;;;;;;;2.67;1.00;;;;;;;28.80;24.40;101402.59;5018109;28;20068;-72
2023/06/14 15:04:48;;;;;;;3.67;1.20;;;;;;;28.64;25.24;101413.50;5006273;28;20113;-68
2023/06/14 15:07:14;;;;;;;2.58;1.40;;;;;;;28.75;25.08;101405.59;4995022;28;20533;-67
2023/06/14 15:09:40;;;;;;;1.27;0.88;;;;;;;28.84;24.88;101409.13;5000888;28;20029;-72
2023/06/14 15:12:07;;;;;;;7.47;1.65;;;;;;;28.84;24.84;101420.28;5014448;28;20029;-72
2023/06/14 15:14:32;;;;;;;1.63;1.02;;;;;;;28.97;25.20;101416.44;5014187;28;20488;-77
2023/06/14 15:16:58;;;;;;;5.13;1.05;;;;;;;29.11;25.36;101412.59;4998039;28;20030;-70
2023/06/14 15:19:23;;;;;;;3.58;1.42;;;;;;;29.12;25.05;101416.97;4998663;28;20505;-73
2023/06/14 15:21:49;;;;;;;4.47;1.33;;;;;;;29.25;24.61;101417.91;5012458;28;20040;-72
2023/06/14 15:24:14;;;;;;;6.00;1.65;;;;;;;29.34;24.72;101413.09;5013801;28;20041;-69
2023/06/14 15:26:40;;;;;;;7.03;1.35;;;;;;;29.25;24.95;101413.16;4998679;28;20355;-75
2023/06/14 15:29:05;;;;;;;7.18;1.52;;;;;;;29.31;24.48;101417.38;4994701;28;20548;-74
2023/06/14 15:31:30;;;;;;;4.63;1.27;;;;;;;29.35;24.12;101417.53;4997789;28;20473;-71
2023/06/14 15:33:56;;;;;;;5.18;1.92;;;;;;;29.30;24.71;101409.34;5021703;28;20034;-70
2023/06/14 15:36:21;;;;;;;4.38;1.23;;;;;;;29.29;24.89;101418.84;5001510;28;20132;-75
2023/06/14 15:38:46;;;;;;;7.22;1.35;;;;;;;29.24;24.50;101419.88;5027365;28;20373;-72
2023/06/14 15:41:12;;;;;;;6.22;1.02;;;;;;;29.26;25.73;101419.53;5027496;28;20029;-72
2023/06/14 15:43:37;;;;;;;6.75;1.20;;;;;;;29.46;24.74;101424.31;5032362;28;20061;-74
2023/06/14 15:46:02;;;;;;;3.00;0.98;;;;;;;29.57;24.69;101418.31;5033660;28;20357;-72
2023/06/14 15:48:28;;;;;;;3.15;1.25;;;;;;;29.74;25.23;101415.34;5033206;28;20029;-74
2023/06/14 15:50:53;;;;;;;5.65;1.30;;;;;;;29.65;25.22;101407.09;5022753;28;20027;-70
2023/06/14 15:53:20;;;;;;;6.00;1.60;;;;;;;29.86;24.74;101403.47;4992527;28;20045;-73
2023/06/14 15:55:45;;;;;;;3.28;1.52;;;;;;;30.11;24.58;101403.56;5009163;28;20046;-72
2023/06/14 15:58:10;;;;;;;2.85;1.38;;;;;;;30.48;24.14;101398.03;5001087;28;20045;-71
2023/06/14 16:00:36;;;;;;;10.57;1.43;;;;;;;30.64;23.36;101403.75;5008741;28;20040;-74
2023/06/14 16:03:01;;;;;;;2.25;0.90;;;;;;;30.31;23.83;101408.22;5007944;28;20644;-71
2023/06/14 16:05:26;;;;;;;5.88;1.23;;;;;;;30.11;24.58;101406.34;5026801;28;20041;-70
2023/06/14 16:07:52;;;;;;;1.60;1.00;;;;;;;29.79;24.54;101398.44;5028370;28;20075;-70
